Saint Louis, Missouri
Traffic Map
Current Weather Conditions
Saint Louis, Missouri
Scattered Clouds Thunderstorm
Scattered Clouds
23°
Feels Like: 23°
Wind Chill: 23° Ceiling: Unl
Heat Index: 23° Visibility: 10mi
Dew Point: 21° Wind: 10mph
Humidity: 87% Direction: 360° (N)
Pressure: 30.01in Gusts: 0mph
Raw Report DataKCPS 251004Z AUTO 36009KT 10SM VCTS -RA FEW100 SCT120 23/21 A3001 RMK AO2 LTG DSNT NE AND NW TSE0958 P0001 T02330211 $
Traffic Incident Summary
Active as of:
Severity:
Category:
InformationThere was an issue retrieving the traffic information for this location. Please try a different location or try again shortly.
Advertisements
Track Severe Weather on mobile